createdAt,value
2023-04-13T00:01:46.006Z,15.60
2023-04-13T00:04:14.524Z,15.50
2023-04-13T00:06:42.846Z,14.60
2023-04-13T00:09:11.201Z,15.30
2023-04-13T00:11:40.210Z,21.00
2023-04-13T00:14:08.500Z,22.60
2023-04-13T00:16:38.175Z,11.70
2023-04-13T00:19:06.786Z,14.90
2023-04-13T00:21:35.066Z,17.80
2023-04-13T00:24:08.459Z,15.10
2023-04-13T00:26:38.762Z,18.10
2023-04-13T00:29:07.578Z,17.00
2023-04-13T00:31:35.712Z,14.50
2023-04-13T00:34:04.574Z,12.10
2023-04-13T00:36:33.173Z,16.10
2023-04-13T00:39:01.118Z,19.50
2023-04-13T00:41:32.944Z,12.40
2023-04-13T00:44:00.995Z,15.70
2023-04-13T00:46:29.730Z,13.70
2023-04-13T00:49:03.117Z,17.70
2023-04-13T00:51:33.142Z,17.10
2023-04-13T00:54:01.061Z,14.40
2023-04-13T00:56:31.690Z,12.80
2023-04-13T00:58:59.687Z,13.70
2023-04-13T01:01:30.364Z,15.30
2023-04-13T01:03:59.517Z,16.40
2023-04-13T01:06:31.978Z,16.30
2023-04-13T01:09:08.707Z,16.10
2023-04-13T01:11:39.702Z,15.90
2023-04-13T01:14:13.212Z,17.40
2023-04-13T01:16:50.399Z,18.90
2023-04-13T01:19:30.983Z,14.40
2023-04-13T01:21:59.749Z,17.30
2023-04-13T01:24:31.101Z,16.20
2023-04-13T01:27:20.682Z,20.70
2023-04-13T01:29:49.489Z,11.40
2023-04-13T01:32:17.885Z,15.40
2023-04-13T01:34:46.525Z,18.30
2023-04-13T01:37:14.779Z,20.20
2023-04-13T01:39:43.255Z,18.80
2023-04-13T01:42:24.216Z,21.90
2023-04-13T01:44:54.475Z,17.30
2023-04-13T01:47:22.825Z,17.90
2023-04-13T01:50:09.397Z,18.50
2023-04-13T01:52:49.395Z,10.40
2023-04-13T01:55:18.222Z,17.10
2023-04-13T01:57:54.934Z,18.40
2023-04-13T02:00:31.843Z,18.50
2023-04-13T02:03:00.684Z,21.70
2023-04-13T02:05:29.544Z,16.80
2023-04-13T02:07:57.935Z,19.30
2023-04-13T02:10:26.680Z,20.90
2023-04-13T02:12:55.525Z,16.60
2023-04-13T02:15:24.187Z,15.40
2023-04-13T02:17:53.225Z,10.70
2023-04-13T02:20:21.763Z,19.30
2023-04-13T02:22:55.149Z,14.40
2023-04-13T02:25:28.186Z,15.40
2023-04-13T02:27:57.225Z,13.80
2023-04-13T02:30:26.048Z,17.30
2023-04-13T02:33:00.549Z,20.50
2023-04-13T02:35:29.002Z,24.00
2023-04-13T02:37:58.216Z,28.70
2023-04-13T02:40:28.222Z,30.80
2023-04-13T02:43:00.017Z,23.00
2023-04-13T02:45:29.505Z,26.20
2023-04-13T02:48:06.334Z,27.00
2023-04-13T02:50:35.859Z,23.50
2023-04-13T02:53:08.955Z,19.10
2023-04-13T02:55:43.358Z,20.30
2023-04-13T02:58:13.589Z,21.90
2023-04-13T03:00:42.542Z,18.30
2023-04-13T03:03:20.465Z,19.80
2023-04-13T03:05:51.470Z,16.20
2023-04-13T03:08:23.852Z,18.20
2023-04-13T03:11:00.878Z,25.00
2023-04-13T03:13:30.807Z,18.90
2023-04-13T03:16:00.537Z,21.30
2023-04-13T03:18:29.204Z,20.10
2023-04-13T03:20:57.143Z,21.80
2023-04-13T03:25:58.655Z,20.30
2023-04-13T03:28:27.294Z,22.50
2023-04-13T03:30:55.628Z,21.10
2023-04-13T03:33:24.990Z,17.20
2023-04-13T03:35:53.090Z,14.80
2023-04-13T03:38:28.007Z,17.30
2023-04-13T03:40:56.295Z,20.20
2023-04-13T03:43:24.989Z,18.40
2023-04-13T03:46:01.810Z,19.50
2023-04-13T03:48:30.140Z,18.50
2023-04-13T03:50:58.614Z,23.70
2023-04-13T03:53:31.279Z,19.10
2023-04-13T03:55:59.817Z,17.50
2023-04-13T03:58:28.947Z,15.10
2023-04-13T04:00:57.849Z,15.50
2023-04-13T04:03:36.021Z,22.00
2023-04-13T04:06:08.463Z,15.50
2023-04-13T04:08:39.976Z,13.30
2023-04-13T04:11:13.728Z,15.20
2023-04-13T04:13:41.892Z,18.90
2023-04-13T04:16:19.738Z,17.00
2023-04-13T04:18:53.295Z,20.60
2023-04-13T04:21:21.862Z,22.00
2023-04-13T04:23:53.007Z,22.90
2023-04-13T04:26:25.803Z,26.40
2023-04-13T04:29:02.805Z,30.40
2023-04-13T04:31:36.672Z,45.90
2023-04-13T04:34:06.791Z,47.60
2023-04-13T04:36:36.436Z,37.60
2023-04-13T04:39:06.339Z,50.40
2023-04-13T04:41:39.831Z,36.10
2023-04-13T04:44:09.115Z,33.70
2023-04-13T04:46:42.097Z,21.70
2023-04-13T04:49:13.243Z,19.00
2023-04-13T04:51:41.894Z,23.20
2023-04-13T04:54:10.615Z,18.60
2023-04-13T04:56:38.932Z,18.20
2023-04-13T04:59:07.156Z,15.10
2023-04-13T05:01:52.444Z,15.00
2023-04-13T05:04:20.710Z,18.70
2023-04-13T05:06:49.290Z,19.00
2023-04-13T05:09:22.862Z,19.50
2023-04-13T05:11:56.416Z,19.90
2023-04-13T05:14:24.380Z,23.50
2023-04-13T05:16:54.632Z,21.30
2023-04-13T05:19:29.744Z,21.20
2023-04-13T05:22:13.079Z,22.80
2023-04-13T05:24:46.478Z,16.30
2023-04-13T05:27:16.076Z,13.50
2023-04-13T05:29:47.894Z,17.00
2023-04-13T05:32:20.987Z,15.80
2023-04-13T05:34:51.096Z,16.60
2023-04-13T05:37:23.748Z,13.20
2023-04-13T05:39:52.153Z,16.50
2023-04-13T05:42:24.130Z,16.90
2023-04-13T05:44:53.074Z,12.70
2023-04-13T05:47:22.505Z,11.80
2023-04-13T05:49:52.357Z,11.20
2023-04-13T05:54:50.417Z,13.70
2023-04-13T05:57:23.086Z,14.90
2023-04-13T05:59:53.453Z,15.80
2023-04-13T06:02:26.564Z,13.30
2023-04-13T06:04:56.521Z,15.80
2023-04-13T06:07:26.071Z,14.90
2023-04-13T06:09:54.417Z,16.90
2023-04-13T06:12:27.994Z,12.70
2023-04-13T06:14:56.010Z,16.20
2023-04-13T06:17:24.669Z,17.60
2023-04-13T06:19:54.531Z,14.50
2023-04-13T06:22:22.829Z,13.20
2023-04-13T06:24:51.782Z,15.10
2023-04-13T06:27:22.686Z,15.20
2023-04-13T06:29:52.444Z,16.30
2023-04-13T06:32:21.097Z,17.80
2023-04-13T06:34:49.321Z,12.60
2023-04-13T06:37:19.315Z,17.20
2023-04-13T06:39:49.890Z,11.00
2023-04-13T06:42:21.268Z,12.70
2023-04-13T06:45:23.525Z,15.20
2023-04-13T06:47:52.578Z,11.80
2023-04-13T06:50:21.012Z,18.10
2023-04-13T06:52:49.201Z,14.40
2023-04-13T06:55:18.073Z,15.10
2023-04-13T06:57:46.942Z,11.80
2023-04-13T07:00:28.917Z,16.40
2023-04-13T07:02:58.812Z,14.60
2023-04-13T07:05:27.087Z,14.60
2023-04-13T07:07:58.433Z,15.20
2023-04-13T07:10:27.467Z,9.80
2023-04-13T07:12:56.369Z,9.80
2023-04-13T07:15:25.696Z,10.60
2023-04-13T07:17:56.018Z,15.30
2023-04-13T07:20:24.182Z,12.40
2023-04-13T07:22:52.972Z,12.20
2023-04-13T07:25:21.850Z,10.00
2023-04-13T07:27:51.025Z,12.20
2023-04-13T07:30:19.483Z,11.30
2023-04-13T07:32:48.972Z,14.80
2023-04-13T07:35:17.025Z,14.50
2023-04-13T07:37:46.743Z,10.30
2023-04-13T07:40:16.059Z,12.30
2023-04-13T07:42:47.288Z,11.90
2023-04-13T07:45:15.955Z,12.10
2023-04-13T07:47:47.266Z,12.30
2023-04-13T07:50:16.665Z,12.60
2023-04-13T07:52:45.103Z,11.40
2023-04-13T07:55:13.532Z,12.10
2023-04-13T07:57:50.051Z,12.30
2023-04-13T08:00:20.685Z,11.90
2023-04-13T08:02:49.260Z,11.50
2023-04-13T08:05:24.081Z,14.50
2023-04-13T08:07:53.801Z,11.40
2023-04-13T08:10:22.422Z,12.30
2023-04-13T08:12:50.375Z,8.60
2023-04-13T08:15:19.804Z,12.40
2023-04-13T08:17:48.907Z,14.60
2023-04-13T08:20:17.075Z,14.00
2023-04-13T08:22:47.803Z,13.40
2023-04-13T08:25:17.569Z,17.00
2023-04-13T08:27:45.838Z,12.70
2023-04-13T08:30:14.858Z,18.40
2023-04-13T08:33:01.778Z,15.00
2023-04-13T08:35:30.304Z,14.50
2023-04-13T08:38:02.698Z,14.30
2023-04-13T08:40:37.529Z,16.90
2023-04-13T08:43:07.359Z,15.70
2023-04-13T08:45:41.682Z,16.70
2023-04-13T08:48:12.241Z,11.30
2023-04-13T08:50:40.943Z,12.60
2023-04-13T08:53:10.390Z,12.80
2023-04-13T08:55:43.568Z,14.00
2023-04-13T08:58:12.966Z,11.30
2023-04-13T09:00:44.403Z,17.40
2023-04-13T09:03:14.613Z,17.00
2023-04-13T09:05:46.469Z,14.90
2023-04-13T09:08:17.069Z,20.20
2023-04-13T09:10:48.316Z,18.00
2023-04-13T09:13:16.770Z,17.80
2023-04-13T09:15:47.472Z,14.20
2023-04-13T09:18:51.583Z,12.10
2023-04-13T09:24:02.702Z,13.40
2023-04-13T09:26:48.196Z,15.10
2023-04-13T09:29:21.900Z,16.00
2023-04-13T09:31:50.744Z,11.00
2023-04-13T09:34:28.752Z,11.70
2023-04-13T09:37:01.024Z,9.20
2023-04-13T09:39:30.227Z,10.90
2023-04-13T09:41:58.630Z,9.20
2023-04-13T09:44:36.191Z,9.50
2023-04-13T09:47:06.984Z,8.20
2023-04-13T09:49:42.311Z,7.70
2023-04-13T09:52:23.380Z,13.70
2023-04-13T09:54:57.221Z,10.60
2023-04-13T09:57:30.791Z,9.00
2023-04-13T10:00:07.172Z,13.20
2023-04-13T10:02:43.007Z,8.10
2023-04-13T10:05:12.555Z,17.30
2023-04-13T10:07:45.535Z,11.80
2023-04-13T10:10:15.436Z,12.10
2023-04-13T10:12:49.059Z,12.80
2023-04-13T10:15:22.766Z,10.90
2023-04-13T10:18:06.975Z,10.00
2023-04-13T10:20:36.604Z,10.70
2023-04-13T10:23:04.651Z,17.90
2023-04-13T10:25:34.589Z,21.40
2023-04-13T10:28:04.794Z,8.80
2023-04-13T10:30:33.289Z,7.60
2023-04-13T10:33:09.440Z,9.70
2023-04-13T10:35:38.198Z,11.00
2023-04-13T10:38:09.230Z,13.80
2023-04-13T10:40:47.884Z,12.70
2023-04-13T10:43:29.074Z,8.70
2023-04-13T10:46:10.846Z,11.90
2023-04-13T10:48:42.264Z,11.50
2023-04-13T10:51:13.170Z,18.60
2023-04-13T10:53:42.307Z,16.90
2023-04-13T10:56:17.147Z,11.80
2023-04-13T10:58:51.994Z,10.60
2023-04-13T11:01:20.843Z,11.20
2023-04-13T11:04:03.168Z,9.60
2023-04-13T11:06:40.069Z,18.00
2023-04-13T11:09:13.099Z,10.30
2023-04-13T11:11:42.668Z,13.90
2023-04-13T11:14:21.415Z,13.10
2023-04-13T11:16:49.558Z,11.00
2023-04-13T11:19:19.055Z,11.30
2023-04-13T11:21:54.090Z,11.20
2023-04-13T11:24:29.549Z,13.80
2023-04-13T11:26:57.820Z,12.90
2023-04-13T11:29:27.412Z,10.70
2023-04-13T11:31:59.238Z,9.70
2023-04-13T11:34:30.664Z,11.40
2023-04-13T11:37:00.647Z,13.80
2023-04-13T11:39:29.372Z,15.80
2023-04-13T11:41:57.444Z,11.60
2023-04-13T11:44:26.215Z,9.60
2023-04-13T11:46:54.592Z,9.30
2023-04-13T11:49:23.087Z,11.00
2023-04-13T11:51:52.173Z,15.80
2023-04-13T11:54:20.268Z,12.10
2023-04-13T11:56:49.148Z,11.80
2023-04-13T11:59:24.851Z,11.70
2023-04-13T12:01:58.284Z,12.90
2023-04-13T12:04:39.086Z,11.90
2023-04-13T12:07:12.656Z,11.60
2023-04-13T12:15:15.471Z,17.30
2023-04-13T12:17:59.942Z,14.20
2023-04-13T12:20:43.971Z,14.70
2023-04-13T12:23:22.305Z,21.60
2023-04-13T12:26:31.218Z,20.80
2023-04-13T12:28:57.523Z,16.60
2023-04-13T12:31:36.805Z,15.80
2023-04-13T12:34:07.834Z,11.20
2023-04-13T12:36:36.964Z,8.80
2023-04-13T12:39:06.872Z,19.30
2023-04-13T12:41:35.310Z,15.10
2023-04-13T12:44:03.387Z,12.50
2023-04-13T12:46:32.510Z,14.10
2023-04-13T12:49:00.721Z,14.20
2023-04-13T12:51:29.265Z,17.60
2023-04-13T12:53:57.228Z,9.80
2023-04-13T12:56:25.233Z,10.00
2023-04-13T12:58:56.300Z,13.80
2023-04-13T13:01:24.640Z,11.50
2023-04-13T13:03:54.002Z,15.60
2023-04-13T13:06:22.525Z,16.40
2023-04-13T13:08:51.254Z,13.20
2023-04-13T13:11:19.160Z,11.60
2023-04-13T13:13:48.790Z,15.70
2023-04-13T13:16:17.485Z,11.80
2023-04-13T13:19:00.958Z,11.90
2023-04-13T13:21:29.603Z,13.00
2023-04-13T13:23:57.925Z,14.60
2023-04-13T13:26:30.577Z,14.30
2023-04-13T13:29:09.630Z,12.70
2023-04-13T13:31:40.302Z,9.20
2023-04-13T13:34:11.792Z,10.60
2023-04-13T13:36:39.717Z,11.00
2023-04-13T13:39:10.188Z,16.50
2023-04-13T13:41:38.666Z,16.00
2023-04-13T13:44:08.605Z,11.60
2023-04-13T13:46:37.303Z,10.30
2023-04-13T13:49:07.990Z,14.90
2023-04-13T13:51:57.352Z,13.10
2023-04-13T13:54:27.055Z,14.90
2023-04-13T13:56:54.999Z,10.70
2023-04-13T13:59:22.946Z,14.10
2023-04-13T14:01:51.566Z,10.90
2023-04-13T14:04:20.233Z,15.00
2023-04-13T14:06:53.305Z,17.00
2023-04-13T14:09:21.758Z,15.20
2023-04-13T14:11:50.866Z,11.50
2023-04-13T14:14:22.253Z,13.70
2023-04-13T14:16:53.889Z,11.60
2023-04-13T14:19:22.273Z,10.20
2023-04-13T14:21:53.417Z,12.30
2023-04-13T14:24:26.492Z,11.50
2023-04-13T14:26:56.225Z,14.10
2023-04-13T14:29:24.244Z,9.20
2023-04-13T14:31:52.952Z,8.40
2023-04-13T14:34:20.955Z,14.80
2023-04-13T14:36:51.611Z,13.70
2023-04-13T14:39:25.976Z,13.20
2023-04-13T14:44:24.763Z,13.90
2023-04-13T14:46:53.625Z,14.60
2023-04-13T14:49:21.877Z,13.10
2023-04-13T14:51:50.185Z,18.10
2023-04-13T14:54:22.981Z,19.20
2023-04-13T14:56:51.475Z,13.10
2023-04-13T14:59:19.934Z,14.40
2023-04-13T15:01:50.965Z,12.50
2023-04-13T15:04:19.993Z,16.90
2023-04-13T15:06:49.451Z,16.30
2023-04-13T15:09:18.248Z,12.40
2023-04-13T15:11:46.594Z,18.50
2023-04-13T15:14:18.296Z,12.30
2023-04-13T15:16:46.501Z,15.30
2023-04-13T15:19:14.522Z,15.60
2023-04-13T15:21:46.420Z,13.50
2023-04-13T15:24:15.797Z,17.10
2023-04-13T15:26:43.786Z,13.20
2023-04-13T15:29:12.906Z,17.60
2023-04-13T15:31:41.308Z,20.30
2023-04-13T15:34:09.261Z,15.70
2023-04-13T15:36:37.827Z,15.10
2023-04-13T15:39:06.553Z,15.70
2023-04-13T15:41:34.511Z,16.80
2023-04-13T15:44:03.435Z,15.30
2023-04-13T15:46:32.508Z,12.80
2023-04-13T15:49:01.455Z,12.50
2023-04-13T15:51:32.685Z,14.90
2023-04-13T15:54:00.621Z,11.40
2023-04-13T15:56:29.158Z,17.80
2023-04-13T15:58:57.422Z,15.60
2023-04-13T16:01:26.741Z,13.80
2023-04-13T16:03:56.384Z,17.70
2023-04-13T16:06:24.553Z,12.40
2023-04-13T16:09:02.119Z,10.50
2023-04-13T16:11:32.331Z,12.20
2023-04-13T16:14:07.488Z,11.70
2023-04-13T16:16:47.215Z,14.70
2023-04-13T16:19:18.404Z,11.80
2023-04-13T16:21:47.584Z,10.30
2023-04-13T16:24:17.255Z,10.40
2023-04-13T16:26:46.102Z,12.30
2023-04-13T16:29:14.028Z,17.50
2023-04-13T16:31:44.979Z,12.10
2023-04-13T16:34:25.508Z,10.30
2023-04-13T16:36:54.797Z,12.90
2023-04-13T16:39:24.054Z,15.50
2023-04-13T16:41:52.169Z,12.70
2023-04-13T16:44:20.196Z,12.40
2023-04-13T16:46:50.088Z,13.50
2023-04-13T16:49:18.508Z,14.30
2023-04-13T16:51:48.414Z,16.50
2023-04-13T16:54:17.919Z,12.40
2023-04-13T16:56:48.472Z,13.70
2023-04-13T16:59:16.744Z,15.60
2023-04-13T17:01:47.659Z,16.10
2023-04-13T17:04:18.905Z,19.00
2023-04-13T17:06:47.485Z,14.00
2023-04-13T17:09:15.621Z,14.30
2023-04-13T17:11:45.835Z,16.50
2023-04-13T17:14:14.038Z,16.20
2023-04-13T17:16:46.139Z,10.40
2023-04-13T17:19:15.632Z,17.10
2023-04-13T17:21:43.962Z,14.80
2023-04-13T17:24:13.417Z,13.30
2023-04-13T17:26:42.787Z,10.90
2023-04-13T17:29:10.913Z,12.10
2023-04-13T17:31:38.945Z,13.50
2023-04-13T17:34:07.304Z,12.10
2023-04-13T17:36:35.337Z,12.30
2023-04-13T17:39:05.773Z,13.30
2023-04-13T17:41:35.841Z,10.70
2023-04-13T17:44:03.962Z,10.00
2023-04-13T17:46:31.970Z,14.90
2023-04-13T17:49:03.151Z,12.60
2023-04-13T17:51:32.503Z,13.40
2023-04-13T17:54:01.089Z,15.30
2023-04-13T17:56:31.759Z,17.20
2023-04-13T17:59:00.788Z,26.80
2023-04-13T18:01:29.510Z,13.10
2023-04-13T18:03:59.588Z,9.10
2023-04-13T18:06:28.043Z,12.20
2023-04-13T18:08:56.321Z,12.70
2023-04-13T18:11:24.736Z,12.70
2023-04-13T18:13:54.027Z,17.20
2023-04-13T18:16:22.552Z,13.80
2023-04-13T18:18:51.442Z,13.50
2023-04-13T18:21:19.732Z,12.80
2023-04-13T18:23:48.130Z,16.10
2023-04-13T18:26:16.567Z,11.80
2023-04-13T18:28:44.886Z,16.40
2023-04-13T18:31:13.670Z,11.60
2023-04-13T18:33:42.569Z,15.60
2023-04-13T18:36:14.444Z,23.30
2023-04-13T18:38:44.955Z,20.30
2023-04-13T18:41:13.572Z,16.10
2023-04-13T18:43:41.524Z,18.90
2023-04-13T18:46:09.510Z,18.00
2023-04-13T18:48:38.096Z,17.40
2023-04-13T18:51:09.920Z,17.30
2023-04-13T18:53:39.773Z,16.40
2023-04-13T18:56:07.851Z,17.00
2023-04-13T18:58:37.495Z,15.80
2023-04-13T19:01:17.600Z,19.10
2023-04-13T19:03:46.180Z,16.50
2023-04-13T19:06:22.381Z,13.20
2023-04-13T19:08:51.076Z,15.30
2023-04-13T19:11:20.088Z,20.40
2023-04-13T19:13:48.198Z,11.90
2023-04-13T19:16:23.744Z,14.30
2023-04-13T19:18:53.353Z,15.00
2023-04-13T19:21:24.067Z,14.70
2023-04-13T19:23:54.316Z,13.40
2023-04-13T19:26:25.145Z,15.60
2023-04-13T19:28:55.627Z,15.90
2023-04-13T19:31:25.085Z,23.50
2023-04-13T19:33:53.393Z,14.00
2023-04-13T19:36:21.404Z,15.10
2023-04-13T19:38:51.959Z,13.30
2023-04-13T19:41:19.895Z,14.60
2023-04-13T19:43:47.866Z,17.20
2023-04-13T19:46:16.212Z,15.70
2023-04-13T19:48:44.590Z,15.00
2023-04-13T19:51:12.644Z,16.00
2023-04-13T19:53:42.010Z,13.70
2023-04-13T19:56:10.534Z,16.30
2023-04-13T19:58:38.626Z,13.70
2023-04-13T20:01:10.370Z,14.30
2023-04-13T20:03:40.833Z,14.90
2023-04-13T20:06:09.363Z,16.10
2023-04-13T20:08:37.412Z,13.50
2023-04-13T20:11:08.214Z,16.00
2023-04-13T20:13:38.674Z,13.50
2023-04-13T20:16:07.224Z,14.00
2023-04-13T20:18:35.315Z,15.80
2023-04-13T20:21:03.782Z,16.20
2023-04-13T20:23:31.818Z,16.10
2023-04-13T20:26:04.642Z,13.20
2023-04-13T20:28:33.491Z,14.70
2023-04-13T20:31:01.493Z,16.80
2023-04-13T20:33:31.146Z,14.90
2023-04-13T20:35:59.132Z,13.50
2023-04-13T20:38:29.989Z,14.60
2023-04-13T20:40:59.381Z,16.20
2023-04-13T20:43:27.956Z,16.70
2023-04-13T20:51:01.810Z,14.70
2023-04-13T20:53:30.146Z,12.10
2023-04-13T20:55:58.463Z,13.00
2023-04-13T20:58:28.658Z,11.40
2023-04-13T21:00:57.169Z,11.00
2023-04-13T21:03:30.838Z,12.40
2023-04-13T21:05:59.751Z,13.50
2023-04-13T21:08:27.787Z,16.50
2023-04-13T21:10:55.903Z,13.70
2023-04-13T21:13:24.866Z,12.30
2023-04-13T21:15:52.792Z,14.80
2023-04-13T21:18:22.152Z,13.90
2023-04-13T21:20:51.970Z,9.80
2023-04-13T21:23:20.629Z,11.20
2023-04-13T21:25:50.918Z,11.80
2023-04-13T21:28:21.214Z,12.70
2023-04-13T21:30:49.263Z,12.80
2023-04-13T21:33:21.612Z,12.00
2023-04-13T21:35:49.650Z,10.60
2023-04-13T21:40:48.614Z,14.80
2023-04-13T21:43:17.001Z,12.30
2023-04-13T21:45:46.931Z,10.90
2023-04-13T21:48:14.995Z,11.20
2023-04-13T21:50:43.481Z,17.70
2023-04-13T21:53:11.580Z,12.30
2023-04-13T21:55:41.360Z,13.30
2023-04-13T21:58:09.588Z,11.50
2023-04-13T22:00:37.891Z,11.40
2023-04-13T22:03:06.775Z,14.70
2023-04-13T22:05:35.847Z,10.10
2023-04-13T22:08:04.286Z,9.50
2023-04-13T22:10:34.063Z,13.30
2023-04-13T22:13:02.168Z,12.70
2023-04-13T22:15:31.974Z,12.30
2023-04-13T22:18:00.821Z,11.80
2023-04-13T22:20:30.165Z,14.40
2023-04-13T22:22:58.073Z,13.60
2023-04-13T22:25:28.048Z,9.40
2023-04-13T22:27:56.519Z,10.10
2023-04-13T22:32:59.028Z,9.10
2023-04-13T22:35:27.392Z,14.00
2023-04-13T22:37:59.728Z,10.00
2023-04-13T22:40:28.180Z,12.90
2023-04-13T22:42:56.105Z,9.50
2023-04-13T22:45:26.319Z,10.40
2023-04-13T22:47:54.290Z,12.50
2023-04-13T22:50:22.306Z,10.10
2023-04-13T22:52:54.259Z,10.40
2023-04-13T22:55:22.466Z,11.00
2023-04-13T22:57:50.977Z,10.90
2023-04-13T23:00:20.925Z,8.80
2023-04-13T23:02:56.033Z,10.60
2023-04-13T23:05:24.533Z,10.10
2023-04-13T23:07:52.464Z,10.60
2023-04-13T23:10:21.787Z,10.50
2023-04-13T23:12:49.959Z,9.40
2023-04-13T23:15:17.998Z,8.00
2023-04-13T23:17:47.621Z,8.90
2023-04-13T23:20:15.791Z,12.10
2023-04-13T23:22:43.798Z,9.50
2023-04-13T23:25:12.059Z,8.10
2023-04-13T23:27:40.500Z,11.50
2023-04-13T23:30:08.904Z,10.10
2023-04-13T23:32:39.791Z,9.00
2023-04-13T23:35:08.830Z,8.90
2023-04-13T23:37:36.859Z,11.80
2023-04-13T23:40:05.524Z,11.90
2023-04-13T23:42:37.201Z,10.00
2023-04-13T23:45:06.579Z,8.50
2023-04-13T23:47:35.547Z,9.20
2023-04-13T23:50:03.894Z,14.70
2023-04-13T23:52:33.161Z,11.10
2023-04-13T23:55:01.151Z,18.20
2023-04-13T23:57:34.025Z,11.30
